Time;durP1;ratioP1;P1;durP2;ratioP2;P2;SDS_P1;SDS_P2;PMS_P1;PMS_P2;Temp;Humidity;BMP_temperature;BMP_pressure;BME280_temperature;BME280_humidity;BME280_pressure;Samples;Min_cycle;Max_cycle;Signal;HPM_P1;HPM_P2
2022/06/23 00:00:08;;;;;;;;;;;19.70;62.40;;;;;;5135680;27;20351;-37
2022/06/23 00:02:35;;;;;;;;;;;19.70;62.30;;;;;;5136789;27;19960;-37
2022/06/23 00:05:03;;;;;;;;;;;19.70;62.90;;;;;;5136828;27;19907;-37
2022/06/23 00:07:30;;;;;;;;;;;19.70;62.50;;;;;;5135441;27;19903;-37
2022/06/23 00:09:57;;;;;;;;;;;19.60;62.30;;;;;;5136948;27;19972;-37
2022/06/23 00:12:25;;;;;;;;;;;19.60;62.30;;;;;;5136867;27;19910;-37
2022/06/23 00:15:02;;;;;;;;;;;19.60;62.30;;;;;;5135138;27;19903;-37
2022/06/23 00:17:28;;;;;;;;;;;19.60;62.70;;;;;;5136969;27;20219;-37
2022/06/23 00:19:55;;;;;;;;;;;19.50;62.70;;;;;;5136571;27;19904;-41
2022/06/23 00:22:22;;;;;;;;;;;19.50;63.30;;;;;;5136420;27;19972;-37
2022/06/23 00:24:48;;;;;;;;;;;19.50;63.20;;;;;;5136509;27;19907;-37
2022/06/23 00:27:17;;;;;;;;;;;19.50;63.00;;;;;;5136683;27;20407;-37
2022/06/23 00:29:44;;;;;;;;;;;19.50;63.30;;;;;;5136425;27;19911;-35
2022/06/23 00:32:10;;;;;;;;;;;19.40;63.00;;;;;;5136251;27;19908;-37
2022/06/23 00:34:43;;;;;;;;;;;19.40;63.20;;;;;;5136381;27;19953;-37
2022/06/23 00:37:09;;;;;;;;;;;19.40;63.00;;;;;;5134951;27;19903;-37
2022/06/23 00:39:40;;;;;;;;;;;19.40;63.00;;;;;;5136441;27;20304;-37
2022/06/23 00:42:25;;;;;;;;;;;19.40;62.90;;;;;;5135598;27;20358;-37
2022/06/23 00:44:55;;;;;;;;;;;19.30;62.80;;;;;;5121721;27;20358;-37
2022/06/23 00:47:25;;;;;;;;;;;19.40;63.00;;;;;;5136241;27;19909;-36
2022/06/23 00:49:52;;;;;;;;;;;19.30;62.90;;;;;;5135791;27;19955;-37
2022/06/23 00:52:21;;;;;;;;;;;19.30;63.00;;;;;;5135981;27;19907;-37
2022/06/23 00:54:49;;;;;;;;;;;19.20;62.90;;;;;;5136204;27;19908;-37
2022/06/23 00:57:14;;;;;;;;;;;19.20;63.00;;;;;;5135872;27;19903;-37
2022/06/23 00:59:44;;;;;;;;;;;19.20;62.80;;;;;;5135854;27;20423;-38
2022/06/23 01:02:14;;;;;;;;;;;19.20;62.80;;;;;;5135602;27;19911;-37
2022/06/23 01:04:39;;;;;;;;;;;19.20;62.90;;;;;;5135908;27;19911;-35
2022/06/23 01:07:14;;;;;;;;;;;19.20;63.50;;;;;;5135754;27;19904;-37
2022/06/23 01:09:51;;;;;;;;;;;19.10;63.20;;;;;;5135612;27;19903;-35
2022/06/23 01:12:22;;;;;;;;;;;19.10;63.30;;;;;;5135600;27;20400;-37
2022/06/23 01:15:26;;;;;;;;;;;19.00;63.30;;;;;;5135508;27;19907;-39
2022/06/23 01:17:56;;;;;;;;;;;19.00;63.40;;;;;;5051987;28;19905;-37
2022/06/23 01:20:26;;;;;;;;;;;19.00;63.50;;;;;;5052093;28;19959;-37
2022/06/23 01:23:08;;;;;;;;;;;19.00;63.80;;;;;;5095414;27;20389;-36
2022/06/23 01:25:34;;;;;;;;;;;18.90;63.70;;;;;;5134811;27;20343;-37
2022/06/23 01:28:01;;;;;;;;;;;18.90;64.00;;;;;;5135157;27;19903;-35
2022/06/23 01:30:30;;;;;;;;;;;18.90;64.60;;;;;;5135169;27;19946;-37
2022/06/23 01:33:06;;;;;;;;;;;18.90;63.90;;;;;;5135055;27;19904;-36
2022/06/23 01:35:35;;;;;;;;;;;18.90;63.80;;;;;;5135327;27;20281;-37
2022/06/23 01:38:02;;;;;;;;;;;18.90;63.80;;;;;;5135082;27;19911;-36
2022/06/23 01:40:35;;;;;;;;;;;18.90;63.70;;;;;;5135246;27;19908;-35
2022/06/23 01:43:13;;;;;;;;;;;18.80;63.80;;;;;;5134756;27;19912;-36
2022/06/23 01:45:54;;;;;;;;;;;18.80;63.80;;;;;;5134817;27;19910;-36
2022/06/23 01:48:51;;;;;;;;;;;18.80;63.70;;;;;;5134817;27;19948;-37
2022/06/23 01:51:19;;;;;;;;;;;18.80;63.90;;;;;;5134735;27;20296;-37
2022/06/23 01:53:44;;;;;;;;;;;18.70;64.10;;;;;;5134734;27;19911;-36
2022/06/23 01:56:22;;;;;;;;;;;18.70;64.40;;;;;;5134824;27;19903;-36
2022/06/23 01:58:59;;;;;;;;;;;18.60;64.40;;;;;;5135073;27;19937;-36
2022/06/23 02:01:31;;;;;;;;;;;18.60;64.40;;;;;;5134904;27;19920;-37
2022/06/23 02:04:05;;;;;;;;;;;18.60;64.40;;;;;;5134602;27;19923;-37
2022/06/23 02:06:37;;;;;;;;;;;18.60;64.30;;;;;;5134758;27;19908;-37
2022/06/23 02:09:06;;;;;;;;;;;18.60;64.30;;;;;;5134804;27;19907;-36
2022/06/23 02:11:48;;;;;;;;;;;18.50;64.30;;;;;;5135173;27;19907;-35
2022/06/23 02:14:14;;;;;;;;;;;18.60;64.40;;;;;;5134445;27;19972;-37
2022/06/23 02:16:43;;;;;;;;;;;18.60;64.60;;;;;;5134650;27;19911;-35
2022/06/23 02:19:21;;;;;;;;;;;18.50;64.50;;;;;;5134387;27;19907;-36
2022/06/23 02:21:51;;;;;;;;;;;18.40;64.60;;;;;;5134206;27;19914;-35
2022/06/23 02:24:23;;;;;;;;;;;18.50;64.60;;;;;;5134997;27;19959;-35
2022/06/23 02:27:00;;;;;;;;;;;18.40;64.60;;;;;;5134279;27;20339;-37
2022/06/23 02:29:30;;;;;;;;;;;18.40;65.80;;;;;;5134237;27;19918;-36
2022/06/23 02:32:00;;;;;;;;;;;18.40;64.90;;;;;;5134394;27;19914;-35
2022/06/23 02:34:30;;;;;;;;;;;18.40;64.80;;;;;;5134111;27;20298;-37
2022/06/23 02:36:55;;;;;;;;;;;18.40;64.70;;;;;;5133412;27;20290;-37
2022/06/23 02:39:29;;;;;;;;;;;18.40;64.60;;;;;;5134401;27;19908;-38
2022/06/23 02:41:56;;;;;;;;;;;18.30;64.50;;;;;;5133976;27;19934;-37
2022/06/23 02:44:41;;;;;;;;;;;18.40;64.80;;;;;;5134104;27;19907;-38
2022/06/23 02:47:21;;;;;;;;;;;18.30;64.60;;;;;;5134132;28;19914;-35
2022/06/23 02:50:01;;;;;;;;;;;18.30;64.70;;;;;;5134579;27;20254;-38
2022/06/23 02:52:38;;;;;;;;;;;18.30;64.70;;;;;;5134076;27;20319;-36
2022/06/23 02:55:26;;;;;;;;;;;18.30;64.70;;;;;;5132669;27;19927;-35
2022/06/23 02:58:04;;;;;;;;;;;18.30;64.80;;;;;;5134257;27;19915;-37
2022/06/23 03:00:52;;;;;;;;;;;18.30;64.60;;;;;;5133956;27;20431;-37
2022/06/23 03:03:30;;;;;;;;;;;18.30;64.50;;;;;;5133553;27;20009;-35
2022/06/23 03:05:58;;;;;;;;;;;18.20;64.40;;;;;;5134306;27;19938;-37
2022/06/23 03:08:38;;;;;;;;;;;18.30;64.50;;;;;;5134485;27;20412;-37
2022/06/23 03:11:08;;;;;;;;;;;18.20;64.40;;;;;;5134129;27;20278;-36
2022/06/23 03:13:34;;;;;;;;;;;18.20;64.50;;;;;;5133778;27;20002;-45
2022/06/23 03:16:18;;;;;;;;;;;18.20;64.40;;;;;;5133788;27;19942;-36
2022/06/23 03:18:46;;;;;;;;;;;18.20;64.50;;;;;;5133730;27;19956;-35
2022/06/23 03:21:19;;;;;;;;;;;18.20;64.40;;;;;;5134125;27;19959;-36
2022/06/23 03:23:51;;;;;;;;;;;18.20;64.40;;;;;;5133931;27;19972;-35
2022/06/23 03:26:21;;;;;;;;;;;18.20;64.40;;;;;;5133591;27;19914;-35
2022/06/23 03:28:47;;;;;;;;;;;18.20;64.40;;;;;;5133949;28;20432;-36
2022/06/23 03:31:19;;;;;;;;;;;18.30;64.40;;;;;;5133858;27;19925;-37
2022/06/23 03:33:54;;;;;;;;;;;18.20;64.20;;;;;;5133809;27;20414;-35
2022/06/23 03:36:26;;;;;;;;;;;18.20;64.20;;;;;;5133624;27;20056;-37
2022/06/23 03:41:48;;;;;;;;;;;18.20;64.20;;;;;;5133639;28;20280;-37
2022/06/23 03:44:29;;;;;;;;;;;18.20;64.20;;;;;;5133607;27;19914;-37
2022/06/23 03:46:54;;;;;;;;;;;18.20;64.40;;;;;;5133431;27;19908;-37
2022/06/23 03:49:33;;;;;;;;;;;18.20;64.60;;;;;;5136354;27;20251;-37
2022/06/23 03:51:59;;;;;;;;;;;18.10;64.50;;;;;;5137099;27;19907;-40
2022/06/23 03:54:28;;;;;;;;;;;18.20;64.70;;;;;;5137141;27;19907;-37
2022/06/23 03:56:56;;;;;;;;;;;18.10;64.50;;;;;;5137124;27;19914;-36
2022/06/23 03:59:26;;;;;;;;;;;18.10;64.50;;;;;;5137076;27;20002;-36
2022/06/23 04:01:51;;;;;;;;;;;18.20;64.60;;;;;;5137028;27;19919;-37
2022/06/23 04:04:22;;;;;;;;;;;18.10;64.40;;;;;;5137278;27;20419;-37
2022/06/23 04:06:48;;;;;;;;;;;18.20;64.50;;;;;;5137012;27;19971;-37
2022/06/23 04:09:13;;;;;;;;;;;18.20;64.60;;;;;;5137051;27;20331;-36
2022/06/23 04:11:45;;;;;;;;;;;18.20;64.40;;;;;;5136886;27;19908;-35
2022/06/23 04:14:15;;;;;;;;;;;18.20;64.40;;;;;;5137052;27;19911;-35
2022/06/23 04:16:41;;;;;;;;;;;18.30;64.30;;;;;;5137350;27;19914;-42
2022/06/23 04:19:10;;;;;;;;;;;18.30;64.30;;;;;;5136756;27;20323;-36
2022/06/23 04:21:39;;;;;;;;;;;18.30;64.30;;;;;;5136695;27;19929;-36
2022/06/23 04:24:05;;;;;;;;;;;18.30;64.20;;;;;;5136578;27;19907;-35
2022/06/23 04:26:33;;;;;;;;;;;18.30;64.10;;;;;;5136425;27;19916;-35
2022/06/23 04:29:06;;;;;;;;;;;18.30;64.00;;;;;;5136465;27;19915;-37
2022/06/23 04:31:34;;;;;;;;;;;18.40;64.00;;;;;;5136398;27;20010;-36
2022/06/23 04:34:00;;;;;;;;;;;18.40;64.00;;;;;;5136341;27;19990;-36
2022/06/23 04:36:27;;;;;;;;;;;18.40;64.20;;;;;;5136250;27;20362;-37
2022/06/23 04:38:57;;;;;;;;;;;18.40;64.30;;;;;;5136586;27;19914;-36
2022/06/23 04:41:34;;;;;;;;;;;18.30;64.20;;;;;;5136609;27;19915;-37
2022/06/23 04:44:02;;;;;;;;;;;18.40;64.20;;;;;;5136141;27;19952;-37
2022/06/23 04:46:29;;;;;;;;;;;18.40;64.00;;;;;;5136668;27;20351;-37
2022/06/23 04:48:55;;;;;;;;;;;18.40;64.10;;;;;;5136285;27;20507;-36
2022/06/23 04:51:20;;;;;;;;;;;18.50;64.00;;;;;;5136208;27;19915;-37
2022/06/23 04:53:51;;;;;;;;;;;18.50;63.90;;;;;;5135935;27;19907;-36
2022/06/23 04:56:36;;;;;;;;;;;18.50;63.90;;;;;;5136189;27;19935;-36
2022/06/23 04:59:06;;;;;;;;;;;18.60;63.80;;;;;;5135659;27;19907;-36
2022/06/23 05:01:37;;;;;;;;;;;18.60;63.70;;;;;;5133595;27;19914;-36
2022/06/23 05:04:04;;;;;;;;;;;18.60;63.70;;;;;;5135953;27;19918;-36
2022/06/23 05:06:33;;;;;;;;;;;18.70;63.60;;;;;;5135920;27;19908;-35
2022/06/23 05:08:59;;;;;;;;;;;18.70;63.50;;;;;;5135552;27;20327;-36
2022/06/23 05:11:29;;;;;;;;;;;18.80;63.50;;;;;;5135638;27;20336;-36
2022/06/23 05:13:58;;;;;;;;;;;18.70;63.40;;;;;;5135525;27;19950;-35
2022/06/23 05:16:28;;;;;;;;;;;18.80;63.50;;;;;;5135564;27;19907;-35
2022/06/23 05:18:54;;;;;;;;;;;18.80;63.30;;;;;;5135300;27;19907;-35
2022/06/23 05:21:26;;;;;;;;;;;18.90;63.40;;;;;;5135700;27;19964;-35
2022/06/23 05:23:54;;;;;;;;;;;18.90;63.30;;;;;;5135497;27;19911;-36
2022/06/23 05:26:22;;;;;;;;;;;18.90;63.30;;;;;;5135747;27;19907;-37
2022/06/23 05:28:51;;;;;;;;;;;18.90;63.30;;;;;;5135141;27;19911;-36
2022/06/23 05:31:20;;;;;;;;;;;19.00;63.20;;;;;;5135291;27;19911;-36
2022/06/23 05:33:48;;;;;;;;;;;19.00;63.20;;;;;;5135205;27;19967;-36
2022/06/23 05:36:25;;;;;;;;;;;19.00;63.20;;;;;;5135331;27;19932;-37
2022/06/23 05:39:00;;;;;;;;;;;19.00;63.10;;;;;;5135001;27;20362;-36
2022/06/23 05:41:32;;;;;;;;;;;19.00;63.10;;;;;;5135145;27;19998;-37
2022/06/23 05:43:58;;;;;;;;;;;19.10;63.00;;;;;;5134888;27;19915;-37
2022/06/23 05:46:25;;;;;;;;;;;19.10;62.90;;;;;;5135057;27;20311;-36
2022/06/23 05:49:14;;;;;;;;;;;19.10;62.90;;;;;;5135078;27;19913;-36
2022/06/23 05:51:54;;;;;;;;;;;19.10;62.70;;;;;;5123699;27;19908;-35
2022/06/23 05:54:25;;;;;;;;;;;19.20;62.70;;;;;;5134598;27;20057;-37
2022/06/23 05:56:53;;;;;;;;;;;19.20;62.60;;;;;;5135006;27;19927;-35
2022/06/23 05:59:22;;;;;;;;;;;19.30;62.60;;;;;;5133448;27;19967;-36
2022/06/23 06:01:54;;;;;;;;;;;19.30;62.50;;;;;;5134281;27;20030;-35
2022/06/23 06:04:23;;;;;;;;;;;19.40;62.50;;;;;;5134627;27;19951;-36
2022/06/23 06:06:49;;;;;;;;;;;19.40;62.40;;;;;;5134475;27;19914;-35
2022/06/23 06:12:01;;;;;;;;;;;19.50;62.20;;;;;;5134589;27;19963;-37
2022/06/23 06:14:29;;;;;;;;;;;19.60;62.30;;;;;;5134628;27;19907;-36
2022/06/23 06:16:56;;;;;;;;;;;19.60;62.30;;;;;;5134865;27;19955;-37
2022/06/23 06:19:23;;;;;;;;;;;19.60;62.20;;;;;;5134717;27;20340;-35
2022/06/23 06:21:50;;;;;;;;;;;19.60;62.30;;;;;;5134282;27;19973;-40
2022/06/23 06:24:20;;;;;;;;;;;19.70;62.20;;;;;;5134530;27;19915;-36
2022/06/23 06:26:53;;;;;;;;;;;19.70;62.10;;;;;;5134333;27;20372;-36
2022/06/23 06:29:23;;;;;;;;;;;19.70;62.00;;;;;;5134505;27;19990;-36
2022/06/23 06:31:59;;;;;;;;;;;19.80;62.00;;;;;;5134189;27;19919;-37
2022/06/23 06:34:25;;;;;;;;;;;19.80;61.90;;;;;;5134457;27;20048;-36
2022/06/23 06:36:51;;;;;;;;;;;19.90;61.90;;;;;;5134214;27;20376;-36
2022/06/23 06:39:18;;;;;;;;;;;20.00;61.70;;;;;;5133979;27;19950;-36
2022/06/23 06:41:46;;;;;;;;;;;20.00;61.60;;;;;;5133939;27;19907;-36
2022/06/23 06:44:12;;;;;;;;;;;20.10;61.60;;;;;;5133949;27;19914;-37
2022/06/23 06:46:38;;;;;;;;;;;20.20;61.50;;;;;;5133954;27;19911;-37
2022/06/23 06:49:04;;;;;;;;;;;20.20;61.50;;;;;;5134325;27;19914;-37
2022/06/23 06:51:30;;;;;;;;;;;20.30;61.40;;;;;;5134460;27;19908;-35
2022/06/23 06:54:03;;;;;;;;;;;20.40;61.40;;;;;;5133713;27;20208;-36
2022/06/23 06:56:42;;;;;;;;;;;20.40;61.30;;;;;;5134182;27;19907;-37
2022/06/23 06:59:10;;;;;;;;;;;20.50;61.20;;;;;;5134029;27;19946;-37
2022/06/23 07:01:37;;;;;;;;;;;20.60;61.10;;;;;;5133831;27;20328;-35
2022/06/23 07:04:03;;;;;;;;;;;20.70;61.00;;;;;;5133775;27;20010;-36
2022/06/23 07:06:36;;;;;;;;;;;20.70;60.90;;;;;;5134077;27;19950;-37
2022/06/23 07:09:26;;;;;;;;;;;20.80;60.80;;;;;;5134228;27;20323;-36
2022/06/23 07:12:01;;;;;;;;;;;20.90;60.70;;;;;;5134180;27;19914;-35
2022/06/23 07:14:33;;;;;;;;;;;21.00;60.70;;;;;;5133974;27;19998;-38
2022/06/23 07:17:03;;;;;;;;;;;21.00;60.60;;;;;;5133966;27;19903;-38
2022/06/23 07:19:31;;;;;;;;;;;21.10;60.60;;;;;;5134064;27;19904;-40
2022/06/23 07:21:57;;;;;;;;;;;21.10;60.50;;;;;;5133896;27;20001;-37
2022/06/23 07:24:38;;;;;;;;;;;21.20;60.60;;;;;;5136571;27;19942;-37
2022/06/23 07:27:15;;;;;;;;;;;21.30;60.50;;;;;;5137624;27;19952;-37
2022/06/23 07:29:56;;;;;;;;;;;21.30;60.40;;;;;;5137535;27;19903;-36
2022/06/23 07:32:40;;;;;;;;;;;21.40;60.20;;;;;;5137977;27;19903;-38
2022/06/23 07:35:08;;;;;;;;;;;21.50;60.10;;;;;;5137304;27;19990;-37
2022/06/23 07:37:37;;;;;;;;;;;21.60;60.10;;;;;;5137579;27;19945;-37
2022/06/23 07:40:05;;;;;;;;;;;21.70;60.10;;;;;;5137944;27;19904;-38
2022/06/23 07:42:30;;;;;;;;;;;21.80;60.00;;;;;;5136177;27;20029;-38
2022/06/23 07:45:00;;;;;;;;;;;21.90;59.90;;;;;;5137435;27;19993;-37
2022/06/23 07:47:25;;;;;;;;;;;22.00;59.70;;;;;;5137239;27;19903;-37
2022/06/23 07:49:51;;;;;;;;;;;22.00;59.40;;;;;;5137159;27;20282;-38
2022/06/23 07:52:18;;;;;;;;;;;22.10;59.30;;;;;;5137310;27;19907;-38
2022/06/23 07:54:43;;;;;;;;;;;22.20;59.20;;;;;;5137463;27;19904;-37
2022/06/23 07:57:14;;;;;;;;;;;22.30;59.10;;;;;;5137344;27;19990;-37
2022/06/23 07:59:48;;;;;;;;;;;22.40;58.90;;;;;;5136950;27;20122;-35
2022/06/23 08:02:27;;;;;;;;;;;22.50;59.00;;;;;;5137002;27;19915;-36
2022/06/23 08:04:59;;;;;;;;;;;22.60;58.80;;;;;;5135479;27;19903;-36
2022/06/23 08:07:25;;;;;;;;;;;22.70;58.70;;;;;;5136872;27;20266;-37
2022/06/23 08:09:52;;;;;;;;;;;22.80;58.70;;;;;;5135830;27;19903;-36
2022/06/23 08:17:58;;;;;;;;;;;23.10;58.40;;;;;;5137490;27;20106;-38
2022/06/23 08:20:24;;;;;;;;;;;23.10;58.30;;;;;;5137031;27;19952;-37
2022/06/23 08:22:52;;;;;;;;;;;23.20;58.30;;;;;;5136541;27;20362;-36
2022/06/23 08:25:18;;;;;;;;;;;23.30;58.30;;;;;;5135700;27;19911;-37
2022/06/23 08:27:44;;;;;;;;;;;23.30;58.10;;;;;;5136618;27;19971;-36
2022/06/23 08:30:15;;;;;;;;;;;23.40;58.00;;;;;;5136618;27;19903;-36
2022/06/23 08:32:41;;;;;;;;;;;23.50;57.90;;;;;;5136332;27;19904;-36
2022/06/23 08:35:09;;;;;;;;;;;23.60;57.80;;;;;;5135305;27;19953;-38
2022/06/23 08:37:46;;;;;;;;;;;23.70;57.80;;;;;;5136655;27;20370;-37
2022/06/23 08:40:14;;;;;;;;;;;23.80;57.70;;;;;;5136199;27;19939;-38
2022/06/23 08:42:48;;;;;;;;;;;23.80;57.60;;;;;;5136243;27;19907;-36
2022/06/23 08:45:32;;;;;;;;;;;24.00;57.50;;;;;;5136483;27;19911;-37
2022/06/23 08:48:06;;;;;;;;;;;24.00;57.40;;;;;;5136449;27;19911;-37
2022/06/23 08:50:35;;;;;;;;;;;24.10;57.30;;;;;;5136367;27;19950;-38
2022/06/23 08:53:07;;;;;;;;;;;24.20;57.20;;;;;;5136488;27;20251;-36
2022/06/23 08:55:53;;;;;;;;;;;24.30;57.00;;;;;;5135976;27;19994;-37
2022/06/23 08:58:24;;;;;;;;;;;24.40;57.00;;;;;;5135211;27;20351;-36
2022/06/23 09:00:50;;;;;;;;;;;24.40;56.90;;;;;;5136082;27;20282;-38
2022/06/23 09:03:19;;;;;;;;;;;24.50;56.80;;;;;;5135693;27;20030;-37
2022/06/23 09:05:47;;;;;;;;;;;24.60;56.70;;;;;;5135987;27;19990;-38
2022/06/23 09:08:22;;;;;;;;;;;24.70;56.70;;;;;;5135846;27;19931;-37
2022/06/23 09:10:55;;;;;;;;;;;24.80;56.50;;;;;;5136007;27;20006;-36
2022/06/23 09:13:45;;;;;;;;;;;24.90;56.40;;;;;;5135613;27;19903;-37
2022/06/23 09:16:22;;;;;;;;;;;24.90;56.20;;;;;;5135906;27;19911;-38
2022/06/23 09:19:00;;;;;;;;;;;25.10;55.90;;;;;;5135438;27;20013;-37
2022/06/23 09:21:39;;;;;;;;;;;25.10;55.60;;;;;;5135668;27;19926;-37
2022/06/23 09:24:05;;;;;;;;;;;25.30;55.60;;;;;;5135457;27;19976;-36
2022/06/23 09:26:33;;;;;;;;;;;25.30;55.30;;;;;;5135467;27;19904;-37
2022/06/23 09:29:16;;;;;;;;;;;25.40;55.20;;;;;;5135199;27;19941;-36
2022/06/23 09:31:59;;;;;;;;;;;25.50;55.30;;;;;;5135650;27;19919;-36
2022/06/23 09:34:34;;;;;;;;;;;25.60;55.20;;;;;;5135423;27;19907;-37
2022/06/23 09:37:22;;;;;;;;;;;25.70;54.90;;;;;;5135065;27;19903;-37
2022/06/23 09:40:06;;;;;;;;;;;25.70;54.60;;;;;;5135331;27;20422;-37
2022/06/23 09:42:50;;;;;;;;;;;25.80;54.70;;;;;;5135100;27;20385;-47
2022/06/23 09:45:24;;;;;;;;;;;25.90;54.80;;;;;;5135019;27;20048;-37
2022/06/23 09:48:08;;;;;;;;;;;26.00;54.70;;;;;;5134633;27;19926;-36
2022/06/23 09:50:43;;;;;;;;;;;26.00;54.40;;;;;;5134827;27;19903;-36
2022/06/23 09:53:27;;;;;;;;;;;26.10;53.80;;;;;;5133433;27;19994;-38
2022/06/23 09:56:19;;;;;;;;;;;26.20;53.40;;;;;;5134749;27;19903;-37
2022/06/23 09:59:03;;;;;;;;;;;26.30;53.60;;;;;;5102909;27;19932;-38
2022/06/23 10:01:47;;;;;;;;;;;26.30;53.60;;;;;;5134623;27;19903;-38
2022/06/23 10:04:17;;;;;;;;;;;26.40;53.60;;;;;;5135053;27;19967;-38
2022/06/23 10:06:43;;;;;;;;;;;26.40;53.40;;;;;;5134653;27;20326;-36
2022/06/23 10:09:11;;;;;;;;;;;26.50;53.50;;;;;;5134572;27;19904;-37
2022/06/23 10:15:08;;;;;;;;;;;26.60;53.30;;;;;;5134626;27;19910;-38
2022/06/23 10:17:51;;;;;;;;;;;26.80;52.70;;;;;;5134601;27;19910;-37
2022/06/23 10:20:34;;;;;;;;;;;26.80;52.40;;;;;;5134632;27;19919;-37
2022/06/23 10:22:59;;;;;;;;;;;26.90;52.50;;;;;;5134608;27;20401;-36
2022/06/23 10:25:37;;;;;;;;;;;26.90;52.70;;;;;;5134919;27;19958;-38
2022/06/23 10:28:13;;;;;;;;;;;27.00;52.80;;;;;;5134374;27;19998;-44
2022/06/23 10:30:39;;;;;;;;;;;27.10;52.40;;;;;;5134597;27;19910;-42
2022/06/23 10:33:23;;;;;;;;;;;27.10;52.30;;;;;;5135153;27;20340;-38
2022/06/23 10:35:54;;;;;;;;;;;27.20;52.30;;;;;;5134139;27;19907;-38
2022/06/23 10:38:36;;;;;;;;;;;27.30;52.40;;;;;;5134672;27;19907;-37
2022/06/23 10:41:08;;;;;;;;;;;27.40;52.50;;;;;;5134157;27;20428;-37
2022/06/23 10:44:05;;;;;;;;;;;27.50;52.40;;;;;;5134109;27;20358;-37
2022/06/23 10:46:34;;;;;;;;;;;27.70;52.40;;;;;;5088524;27;20346;-38
2022/06/23 10:49:11;;;;;;;;;;;27.80;51.40;;;;;;5134388;27;19904;-36
2022/06/23 10:51:43;;;;;;;;;;;27.90;51.20;;;;;;5134021;27;20340;-47
2022/06/23 10:54:24;;;;;;;;;;;28.00;51.00;;;;;;5134039;27;19938;-37
2022/06/23 10:57:08;;;;;;;;;;;28.10;50.30;;;;;;5132708;27;19903;-37
2022/06/23 10:59:49;;;;;;;;;;;28.20;50.70;;;;;;5137516;27;20002;-38
2022/06/23 11:02:23;;;;;;;;;;;28.40;50.60;;;;;;5138002;27;20361;-38
2022/06/23 11:05:07;;;;;;;;;;;28.40;49.90;;;;;;5138154;27;19980;-42
2022/06/23 11:08:05;;;;;;;;;;;28.50;49.90;;;;;;5136812;27;19903;-38
2022/06/23 11:10:30;;;;;;;;;;;28.70;50.10;;;;;;5092481;27;19952;-38
2022/06/23 11:12:56;;;;;;;;;;;28.80;49.20;;;;;;5138009;27;19911;-36
2022/06/23 11:15:28;;;;;;;;;;;28.90;49.10;;;;;;5138255;27;19903;-37
2022/06/23 11:17:53;;;;;;;;;;;29.00;49.10;;;;;;5137859;27;19954;-38
2022/06/23 11:20:31;;;;;;;;;;;29.10;48.70;;;;;;5137899;27;19907;-39
2022/06/23 11:23:12;;;;;;;;;;;29.20;48.40;;;;;;5137686;27;19907;-38
2022/06/23 11:25:44;;;;;;;;;;;29.20;48.40;;;;;;5137949;27;20005;-38
2022/06/23 11:28:12;;;;;;;;;;;29.30;48.70;;;;;;5137711;27;19904;-40
2022/06/23 11:30:37;;;;;;;;;;;29.40;48.40;;;;;;5138126;27;19979;-41
2022/06/23 11:33:12;;;;;;;;;;;29.50;48.20;;;;;;5137986;27;19903;-37
2022/06/23 11:36:03;;;;;;;;;;;29.50;48.40;;;;;;5137532;27;19907;-36
2022/06/23 11:38:50;;;;;;;;;;;29.60;48.40;;;;;;5137606;27;20278;-37
2022/06/23 11:41:19;;;;;;;;;;;29.70;48.40;;;;;;5136123;27;20006;-37
2022/06/23 11:44:20;;;;;;;;;;;29.80;48.20;;;;;;5138132;27;20414;-37
2022/06/23 11:47:09;;;;;;;;;;;29.90;48.20;;;;;;5037368;28;19905;-38
2022/06/23 11:49:58;;;;;;;;;;;30.00;48.10;;;;;;5122788;27;20369;-37
2022/06/23 11:52:26;;;;;;;;;;;30.10;47.90;;;;;;5137232;27;19968;-39
2022/06/23 11:55:02;;;;;;;;;;;30.20;47.90;;;;;;5137284;27;19904;-38
2022/06/23 11:57:34;;;;;;;;;;;30.30;48.00;;;;;;5137386;27;19946;-48
2022/06/23 12:00:05;;;;;;;;;;;30.40;48.10;;;;;;5137214;27;19938;-36
2022/06/23 12:02:35;;;;;;;;;;;30.30;48.10;;;;;;5136963;27;20049;-37
2022/06/23 12:05:32;;;;;;;;;;;30.40;47.70;;;;;;5137045;27;19952;-38
2022/06/23 12:08:01;;;;;;;;;;;30.50;47.40;;;;;;5091587;27;19907;-37
2022/06/23 12:10:28;;;;;;;;;;;30.70;47.70;;;;;;5137231;27;19904;-37
2022/06/23 12:12:56;;;;;;;;;;;30.70;47.60;;;;;;5137025;27;19910;-37
2022/06/23 12:15:24;;;;;;;;;;;30.80;47.30;;;;;;5136829;27;19911;-38
2022/06/23 12:17:52;;;;;;;;;;;30.80;47.00;;;;;;5137107;27;20437;-38
2022/06/23 12:20:37;;;;;;;;;;;30.80;47.00;;;;;;5136815;27;20024;-41
2022/06/23 12:23:06;;;;;;;;;;;30.90;46.90;;;;;;5136561;27;19907;-37
2022/06/23 12:25:43;;;;;;;;;;;31.00;46.40;;;;;;5136634;27;19955;-37
2022/06/23 12:28:09;;;;;;;;;;;30.90;46.00;;;;;;5135137;27;19926;-37
2022/06/23 12:30:45;;;;;;;;;;;30.80;46.50;;;;;;5136854;27;19903;-37
2022/06/23 12:33:21;;;;;;;;;;;30.80;46.60;;;;;;5135027;27;20417;-36
2022/06/23 12:35:46;;;;;;;;;;;30.90;46.70;;;;;;5136635;27;19903;-36
2022/06/23 12:38:29;;;;;;;;;;;31.00;46.40;;;;;;5136761;27;20375;-36
2022/06/23 12:40:57;;;;;;;;;;;31.20;46.60;;;;;;5136628;27;20274;-41
2022/06/23 12:43:58;;;;;;;;;;;31.40;46.20;;;;;;5136373;27;19907;-37
2022/06/23 12:46:32;;;;;;;;;;;31.50;45.70;;;;;;5052899;28;19909;-38
2022/06/23 12:49:13;;;;;;;;;;;31.60;45.90;;;;;;5124090;27;19918;-37
2022/06/23 12:51:46;;;;;;;;;;;31.70;45.60;;;;;;5136543;27;19976;-37
2022/06/23 12:54:14;;;;;;;;;;;31.60;45.20;;;;;;5136496;27;19903;-37
2022/06/23 12:56:40;;;;;;;;;;;31.60;45.20;;;;;;5136036;27;19953;-37
2022/06/23 12:59:08;;;;;;;;;;;31.70;45.30;;;;;;5136006;27;19907;-37
2022/06/23 13:01:38;;;;;;;;;;;31.60;45.50;;;;;;5136128;27;19903;-37
2022/06/23 13:04:26;;;;;;;;;;;31.50;45.80;;;;;;5136297;27;19907;-46
2022/06/23 13:06:59;;;;;;;;;;;31.50;46.00;;;;;;5135843;27;19910;-38
2022/06/23 13:09:29;;;;;;;;;;;31.50;45.80;;;;;;5135653;27;19903;-36
2022/06/23 13:11:59;;;;;;;;;;;31.60;45.70;;;;;;5136484;27;19903;-37
2022/06/23 13:14:28;;;;;;;;;;;31.80;45.30;;;;;;5135890;27;19914;-37
2022/06/23 13:17:00;;;;;;;;;;;31.80;45.10;;;;;;5136013;27;19903;-38
2022/06/23 13:19:34;;;;;;;;;;;31.70;45.40;;;;;;5136006;27;19904;-38
2022/06/23 13:22:04;;;;;;;;;;;31.60;45.70;;;;;;5135086;27;20004;-37
2022/06/23 13:24:32;;;;;;;;;;;31.60;45.60;;;;;;5135746;27;19903;-37
2022/06/23 13:26:58;;;;;;;;;;;31.80;45.60;;;;;;5135716;27;19907;-37
2022/06/23 13:29:32;;;;;;;;;;;31.90;45.50;;;;;;5135302;27;20007;-38
2022/06/23 13:32:00;;;;;;;;;;;32.00;45.50;;;;;;5135748;27;20378;-38
2022/06/23 13:34:31;;;;;;;;;;;32.20;45.60;;;;;;5135263;27;19903;-36
2022/06/23 13:37:09;;;;;;;;;;;32.30;45.60;;;;;;5135603;27;20277;-38
2022/06/23 13:39:55;;;;;;;;;;;32.20;45.60;;;;;;5135261;27;19991;-38
2022/06/23 13:42:24;;;;;;;;;;;32.30;45.40;;;;;;5135136;27;19907;-38
2022/06/23 13:45:02;;;;;;;;;;;32.40;45.30;;;;;;5135149;27;19963;-37
2022/06/23 13:47:33;;;;;;;;;;;32.60;45.40;;;;;;5135498;27;19903;-38
2022/06/23 13:50:18;;;;;;;;;;;32.80;45.50;;;;;;5135183;27;20419;-43
2022/06/23 13:52:49;;;;;;;;;;;32.90;45.50;;;;;;5134637;27;19948;-37
2022/06/23 13:55:23;;;;;;;;;;;33.10;45.30;;;;;;5135147;27;19986;-38
2022/06/23 13:57:52;;;;;;;;;;;33.30;45.10;;;;;;5135114;27;19907;-39
2022/06/23 14:00:24;;;;;;;;;;;33.40;44.50;;;;;;5135142;27;19912;-38
2022/06/23 14:02:59;;;;;;;;;;;33.60;44.70;;;;;;5134854;27;19919;-39
2022/06/23 14:05:36;;;;;;;;;;;33.70;44.40;;;;;;5134890;27;19904;-38
2022/06/23 14:08:04;;;;;;;;;;;33.80;44.50;;;;;;5135510;27;20235;-39
2022/06/23 14:10:39;;;;;;;;;;;34.00;44.50;;;;;;5135222;27;19906;-37
2022/06/23 14:13:05;;;;;;;;;;;34.00;44.30;;;;;;5134988;27;19910;-37
2022/06/23 14:15:36;;;;;;;;;;;33.90;44.10;;;;;;5134741;27;20256;-38
2022/06/23 14:18:14;;;;;;;;;;;33.80;44.40;;;;;;5133191;27;19958;-36
2022/06/23 14:20:52;;;;;;;;;;;33.80;44.50;;;;;;5134829;27;19990;-41
2022/06/23 14:23:22;;;;;;;;;;;33.80;44.50;;;;;;5134771;27;19911;-38
2022/06/23 14:26:08;;;;;;;;;;;34.00;44.40;;;;;;5134389;27;19908;-38
2022/06/23 14:28:33;;;;;;;;;;;34.10;44.20;;;;;;5133890;27;19904;-37
2022/06/23 14:31:08;;;;;;;;;;;34.10;44.20;;;;;;5134426;27;19911;-39
2022/06/23 14:33:33;;;;;;;;;;;34.20;44.00;;;;;;5133554;27;19904;-38
2022/06/23 14:36:01;;;;;;;;;;;34.40;44.10;;;;;;5134599;27;19910;-37
2022/06/23 14:38:37;;;;;;;;;;;34.50;43.90;;;;;;5134698;27;19910;-38
2022/06/23 14:41:14;;;;;;;;;;;34.60;43.90;;;;;;5134462;27;19904;-37
2022/06/23 14:43:59;;;;;;;;;;;34.80;44.00;;;;;;5134452;27;19990;-37
2022/06/23 14:46:39;;;;;;;;;;;34.90;43.90;;;;;;5134614;28;20381;-38
2022/06/23 14:49:08;;;;;;;;;;;35.10;43.90;;;;;;5134337;27;19972;-40
2022/06/23 14:51:33;;;;;;;;;;;35.20;43.80;;;;;;5134480;27;20274;-39
2022/06/23 14:54:05;;;;;;;;;;;35.20;43.90;;;;;;5134090;27;19903;-38
2022/06/23 14:56:56;;;;;;;;;;;35.00;43.80;;;;;;5134207;27;20307;-37
2022/06/23 14:59:31;;;;;;;;;;;34.80;43.90;;;;;;5102430;27;19910;-35
2022/06/23 15:02:07;;;;;;;;;;;34.60;43.60;;;;;;5133759;27;19919;-37